^^
Station Historical Data
Daily Summary for January 7, 2017 Units:  English    Metric   Both
« Previous Day
Next Day »
Daily Weekly Monthly Yearly Custom
  High: Low: Average:
Temperature: 21.2 °F 17.4 °F 18.8 °F
Dew Point: 16.0 °F 6.7 °F 12.3 °F
Humidity: 92% 55% 77%
Wind Speed: 8.0mph 0.0mph 1.3mph
Wind Gust: 15.0mph - -
Wind- - WNW
Pressure: 30.37 in 30.14 in -
Precipitation: 0.00 in    
Historical Graphs
 
 
Tabular Data for January 7, 2017
Time Temperature Dew Point Pressure Wind Wind Speed Wind Gust Humidity Rainfall Rate (Hourly) Conditions
00:00 21.2 °F 9.8 °F 30.31 in Calm   2.0 mph 61% 0.00 in CLR
00:10 21.0 °F 10.0 °F 30.32 in Calm   1.0 mph 62% 0.00 in CLR
00:20 21.0 °F 9.3 °F 30.32 in Calm   3.0 mph 60% 0.00 in CLR
00:30 20.9 °F 9.5 °F 30.32 in Calm   2.0 mph 61% 0.00 in CLR
00:40 20.9 °F 9.5 °F 30.32 in Calm   3.0 mph 61% 0.00 in CLR
00:50 20.8 °F 9.5 °F 30.32 in Calm   2.0 mph 61% 0.00 in CLR
01:00 20.6 °F 9.3 °F 30.31 in NNW 1.0 mph 2.0 mph 61% 0.00 in CLR
01:10 20.5 °F 8.8 °F 30.31 in NNW 1.0 mph 3.0 mph 60% 0.00 in CLR
01:20 20.5 °F 9.1 °F 30.30 in Calm   3.0 mph 61% 0.00 in CLR
01:30 20.4 °F 8.7 °F 30.31 in NNW 1.0 mph 4.0 mph 60% 0.00 in CLR
01:40 20.2 °F 8.2 °F 30.32 in NNW 1.0 mph 4.0 mph 59% 0.00 in CLR
01:50 20.2 °F 8.1 °F 30.32 in North 1.0 mph 5.0 mph 59% 0.00 in CLR
02:00 20.3 °F 8.6 °F 30.33 in Calm   3.0 mph 60% 0.00 in CLR
02:10 20.3 °F 8.2 °F 30.33 in NNW 1.0 mph 7.0 mph 59% 0.00 in CLR
02:20 20.2 °F 8.2 °F 30.33 in NNW 1.0 mph 4.0 mph 59% 0.00 in CLR
02:30 20.2 °F 8.2 °F 30.34 in Calm   9.0 mph 59% 0.00 in CLR
02:40 20.2 °F 8.1 °F 30.34 in North 1.0 mph 4.0 mph 59% 0.00 in CLR
02:50 20.2 °F 8.2 °F 30.34 in Calm   4.0 mph 59% 0.00 in CLR
03:00 20.1 °F 7.7 °F 30.35 in North 1.0 mph 6.0 mph 58% 0.00 in CLR
03:10 20.0 °F 7.6 °F 30.34 in North 1.0 mph 6.0 mph 58% 0.00 in CLR
03:20 19.9 °F 7.9 °F 30.34 in Calm   2.0 mph 59% 0.00 in CLR
03:30 20.0 °F 7.9 °F 30.35 in Calm   1.0 mph 59% 0.00 in CLR
03:40 19.9 °F 7.9 °F 30.35 in Calm   2.0 mph 59% 0.00 in CLR
03:50 20.0 °F 7.6 °F 30.35 in Calm   3.0 mph 58% 0.00 in CLR
04:00 20.0 °F 7.6 °F 30.34 in Calm   1.0 mph 58% 0.00 in CLR
04:10 19.9 °F 7.9 °F 30.35 in Calm   1.0 mph 59% 0.00 in FEW
04:20 19.8 °F 7.4 °F 30.35 in Calm   3.0 mph 58% 0.00 in FEW
04:30 19.9 °F 7.5 °F 30.35 in Calm   2.0 mph 58% 0.00 in FEW
04:40 20.0 °F 7.2 °F 30.37 in NNW 1.0 mph 3.0 mph 57% 0.00 in FEW
04:50 20.0 °F 7.6 °F 30.36 in Calm   3.0 mph 58% 0.00 in FEW
05:00 20.0 °F 7.6 °F 30.35 in Calm   2.0 mph 58% 0.00 in FEW
05:10 20.0 °F 7.6 °F 30.36 in Calm   1.0 mph 58% 0.00 in SCT
05:20 20.0 °F 7.5 °F 30.36 in Calm   3.0 mph 58% 0.00 in SCT
05:30 19.9 °F 7.9 °F 30.35 in NNW 2.0 mph 4.0 mph 59% 0.00 in SCT
05:40 19.9 °F 7.9 °F 30.35 in Calm   3.0 mph 59% 0.00 in SCT
05:50 19.8 °F 7.4 °F 30.35 in Calm   4.0 mph 58% 0.00 in SCT
06:00 19.8 °F 7.8 °F 30.34 in Calm   4.0 mph 59% 0.00 in SCT
06:10 19.9 °F 8.2 °F 30.32 in Calm   4.0 mph 60% 0.00 in BKN
06:20 19.8 °F 8.1 °F 30.33 in NNW 1.0 mph 4.0 mph 60% 0.00 in BKN
06:30 19.8 °F 7.8 °F 30.32 in North 2.0 mph 5.0 mph 59% 0.00 in BKN
06:40 19.8 °F 8.1 °F 30.32 in NNW 2.0 mph 4.0 mph 60% 0.00 in BKN
06:50 19.8 °F 7.8 °F 30.33 in North 2.0 mph 8.0 mph 59% 0.00 in BKN
07:00 19.8 °F 7.8 °F 30.32 in NNW 1.0 mph 9.0 mph 59% 0.00 in BKN
07:10 19.8 °F 7.8 °F 30.32 in Calm   7.0 mph 59% 0.00 in BKN
07:20 19.9 °F 7.9 °F 30.32 in NNW 2.0 mph 8.0 mph 59% 0.00 in BKN
07:30 19.9 °F 8.2 °F 30.31 in Calm   6.0 mph 60% 0.00 in BKN
07:40 20.0 °F 8.0 °F 30.33 in NNW 2.0 mph 10.0 mph 59% 0.00 in BKN
07:50 20.1 °F 7.7 °F 30.32 in NNW 1.0 mph 10.0 mph 58% 0.00 in BKN
08:00 20.2 °F 7.8 °F 30.33 in NNW 1.0 mph 8.0 mph 58% 0.00 in BKN
08:10 20.3 °F 7.1 °F 30.33 in NW 2.0 mph 8.0 mph 56% 0.00 in BKN
08:20 20.3 °F 6.7 °F 30.32 in North 2.0 mph 12.0 mph 55% 0.00 in BKN
08:30 20.3 °F 7.1 °F 30.32 in NNW 2.0 mph 7.0 mph 56% 0.00 in BKN
08:40 20.4 °F 7.2 °F 30.33 in Calm   8.0 mph 56% 0.00 in BKN
08:50 20.4 °F 7.2 °F 30.33 in North 2.0 mph 7.0 mph 56% 0.00 in BKN
09:00 20.5 °F 7.3 °F 30.34 in North 1.0 mph 6.0 mph 56% 0.00 in BKN
09:10 20.6 °F 7.8 °F 30.33 in NNW 2.0 mph 9.0 mph 57% 0.00 in -SN
09:20 20.6 °F 7.7 °F 30.33 in Calm   6.0 mph 57% 0.00 in -SN
09:30 20.6 °F 8.5 °F 30.33 in Calm   3.0 mph 59% 0.00 in -SN
09:40 20.2 °F 10.3 °F 30.33 in North 1.0 mph 5.0 mph 65% 0.00 in -SN
09:50 19.3 °F 11.4 °F 30.33 in North 3.0 mph 9.0 mph 71% 0.00 in -SN
10:00 18.9 °F 12.0 °F 30.32 in Calm   11.0 mph 74% 0.00 in -SN
10:10 18.9 °F 12.3 °F 30.33 in Calm   6.0 mph 75% 0.00 in -SN
10:20 18.8 °F 12.2 °F 30.34 in NNW 1.0 mph 9.0 mph 75% 0.00 in -SN
10:30 18.7 °F 12.7 °F 30.32 in NNW 1.0 mph 8.0 mph 77% 0.00 in -SN
10:40 18.5 °F 12.8 °F 30.31 in North 2.0 mph 7.0 mph 78% 0.00 in -SN
10:50 18.3 °F 13.4 °F 30.30 in NNW 1.0 mph 5.0 mph 81% 0.00 in -SN
11:00 18.1 °F 14.1 °F 30.30 in NNW 1.0 mph 5.0 mph 84% 0.00 in -SN
11:10 17.9 °F 14.4 °F 30.29 in NNW 1.0 mph 6.0 mph 86% 0.00 in -SN
11:20 17.9 °F 14.7 °F 30.29 in NNW 1.0 mph 4.0 mph 87% 0.00 in -SN
11:30 17.9 °F 14.9 °F 30.27 in NNW 1.0 mph 4.0 mph 88% 0.00 in -SN
11:40 17.8 °F 14.9 °F 30.27 in NNW 2.0 mph 6.0 mph 88% 0.00 in -SN
11:50 17.9 °F 15.2 °F 30.27 in Calm   6.0 mph 89% 0.00 in -SN
12:00 18.1 °F 15.4 °F 30.24 in NNW 1.0 mph 3.0 mph 89% 0.00 in -SN
12:10 18.2 °F 15.5 °F 30.24 in Calm   4.0 mph 89% 0.00 in CLR
12:20 18.2 °F 15.5 °F 30.23 in NNW 1.0 mph 5.0 mph 89% 0.00 in CLR
12:30 18.2 °F 15.5 °F 30.24 in NNW 1.0 mph 5.0 mph 89% 0.00 in CLR
12:40 18.3 °F 15.9 °F 30.24 in NNW 1.0 mph 3.0 mph 90% 0.00 in CLR
12:50 18.2 °F 15.5 °F 30.22 in NNW 2.0 mph 8.0 mph 89% 0.00 in CLR
13:00 18.1 °F 15.4 °F 30.21 in NNW 1.0 mph 6.0 mph 89% 0.00 in CLR
13:10 18.1 °F 15.7 °F 30.21 in NNW 1.0 mph 6.0 mph 90% 0.00 in CLR
13:20 17.8 °F 15.1 °F 30.21 in North 3.0 mph 7.0 mph 89% 0.00 in CLR
13:30 17.6 °F 15.0 °F 30.20 in NNW 2.0 mph 9.0 mph 89% 0.00 in CLR
13:40 17.6 °F 15.2 °F 30.20 in North 1.0 mph 7.0 mph 90% 0.00 in CLR
13:50 17.6 °F 15.2 °F 30.20 in North 1.0 mph 7.0 mph 90% 0.00 in CLR
14:00 17.5 °F 15.1 °F 30.19 in NNE 1.0 mph 8.0 mph 90% 0.00 in CLR
14:10 17.5 °F 15.1 °F 30.17 in NNW 1.0 mph 7.0 mph 90% 0.00 in -SN
14:20 17.4 °F 15.0 °F 30.17 in North 1.0 mph 6.0 mph 90% 0.00 in -SN
14:30 17.4 °F 15.0 °F 30.19 in NNW 1.0 mph 7.0 mph 90% 0.00 in -SN
14:40 17.4 °F 15.2 °F 30.19 in Calm   9.0 mph 91% 0.00 in -SN
14:50 17.4 °F 15.2 °F 30.19 in NNW 2.0 mph 7.0 mph 91% 0.00 in -SN
15:00 17.5 °F 15.3 °F 30.19 in NNW 1.0 mph 6.0 mph 91% 0.00 in -SN
15:10 17.4 °F 15.2 °F 30.19 in North 1.0 mph 9.0 mph 91% 0.00 in -SN
15:20 17.4 °F 15.2 °F 30.18 in NNE 2.0 mph 6.0 mph 91% 0.00 in -SN
15:30 17.5 °F 15.3 °F 30.17 in NNW 2.0 mph 6.0 mph 91% 0.00 in -SN
15:40 17.5 °F 15.3 °F 30.17 in NNW 3.0 mph 8.0 mph 91% 0.00 in -SN
15:50 17.5 °F 15.6 °F 30.18 in NNW 3.0 mph 7.0 mph 92% 0.00 in -SN
16:00 17.6 °F 15.7 °F 30.16 in NNW 3.0 mph 9.0 mph 92% 0.00 in -SN
16:10 17.5 °F 15.3 °F 30.15 in NNW 2.0 mph 9.0 mph 91% 0.00 in CLR
16:20 17.4 °F 15.5 °F 30.17 in North 1.0 mph 6.0 mph 92% 0.00 in CLR
16:30 17.4 °F 15.5 °F 30.17 in North 2.0 mph 7.0 mph 92% 0.00 in CLR
16:40 17.4 °F 15.5 °F 30.16 in NNW 5.0 mph 12.0 mph 92% 0.00 in CLR
16:50 17.6 °F 15.6 °F 30.16 in North 1.0 mph 7.0 mph 92% 0.00 in CLR
17:00 17.6 °F 15.6 °F 30.15 in NW 5.0 mph 12.0 mph 92% 0.00 in CLR
17:10 17.5 °F 15.6 °F 30.17 in North 3.0 mph 12.0 mph 92% 0.00 in -SN
17:20 17.5 °F 15.6 °F 30.17 in North 1.0 mph 12.0 mph 92% 0.00 in -SN
17:30 17.7 °F 15.8 °F 30.16 in NNW 1.0 mph 4.0 mph 92% 0.00 in -SN
17:40 17.7 °F 15.8 °F 30.17 in NNW 3.0 mph 9.0 mph 92% 0.00 in -SN
17:50 17.8 °F 15.8 °F 30.16 in North 3.0 mph 8.0 mph 92% 0.00 in -SN
18:00 17.6 °F 15.7 °F 30.16 in NW 2.0 mph 12.0 mph 92% 0.00 in -SN
18:10 17.5 °F 15.6 °F 30.16 in NNW 5.0 mph 15.0 mph 92% 0.00 in -SN
18:20 17.5 °F 15.6 °F 30.16 in NNW 2.0 mph 12.0 mph 92% 0.00 in -SN
18:30 17.5 °F 15.6 °F 30.14 in North 3.0 mph 10.0 mph 92% 0.00 in -SN
18:40 17.5 °F 15.6 °F 30.16 in North 5.0 mph 15.0 mph 92% 0.00 in -SN
18:50 17.5 °F 15.6 °F 30.15 in NNW 2.0 mph 15.0 mph 92% 0.00 in -SN
19:00 17.7 °F 15.8 °F 30.15 in North 2.0 mph 13.0 mph 92% 0.00 in -SN
19:10 17.8 °F 15.9 °F 30.15 in North 1.0 mph 10.0 mph 92% 0.00 in OVC
19:20 17.9 °F 16.0 °F 30.15 in NNW 2.0 mph 12.0 mph 92% 0.00 in OVC
19:30 17.9 °F 16.0 °F 30.14 in North 2.0 mph 13.0 mph 92% 0.00 in OVC
19:40 17.8 °F 15.6 °F 30.14 in North 3.0 mph 15.0 mph 91% 0.00 in OVC
19:50 17.8 °F 15.6 °F 30.15 in NW 1.0 mph 12.0 mph 91% 0.00 in OVC
20:00 17.8 °F 15.9 °F 30.15 in NNE 2.0 mph 10.0 mph 92% 0.00 in OVC
20:10 17.9 °F 16.0 °F 30.15 in North 1.0 mph 5.0 mph 92% 0.00 in -SN
20:20 17.8 °F 15.9 °F 30.14 in North 2.0 mph 6.0 mph 92% 0.00 in -SN
20:30 17.8 °F 15.9 °F 30.15 in NNW 1.0 mph 7.0 mph 92% 0.00 in -SN
20:40 17.8 °F 15.9 °F 30.14 in North 1.0 mph 7.0 mph 92% 0.00 in -SN
20:50 17.7 °F 15.8 °F 30.15 in North 2.0 mph 9.0 mph 92% 0.00 in -SN
21:00 17.7 °F 15.5 °F 30.15 in North 2.0 mph 9.0 mph 91% 0.00 in -SN
21:10 17.7 °F 15.6 °F 30.15 in NW 8.0 mph 15.0 mph 91% 0.00 in BKN
21:20 17.9 °F 15.7 °F 30.15 in NNW 3.0 mph 13.0 mph 91% 0.00 in BKN
21:30 18.0 °F 15.8 °F 30.16 in North 2.0 mph 9.0 mph 91% 0.00 in BKN
21:40 18.1 °F 15.9 °F 30.16 in NW 1.0 mph 8.0 mph 91% 0.00 in BKN
21:50 18.2 °F 16.0 °F 30.16 in NNE 1.0 mph 8.0 mph 91% 0.00 in BKN
22:00 18.2 °F 16.0 °F 30.16 in North 3.0 mph 13.0 mph 91% 0.00 in BKN
22:10 18.1 °F 15.7 °F 30.16 in North 5.0 mph 10.0 mph 90% 0.00 in -SN
22:20 18.1 °F 15.7 °F 30.16 in North 2.0 mph 7.0 mph 90% 0.00 in -SN
22:30 18.0 °F 15.6 °F 30.16 in North 2.0 mph 13.0 mph 90% 0.00 in -SN
22:40 18.0 °F 15.6 °F 30.16 in North 1.0 mph 7.0 mph 90% 0.00 in -SN
22:50 18.0 °F 15.3 °F 30.16 in Calm   8.0 mph 89% 0.00 in -SN
23:00 18.1 °F 15.4 °F 30.16 in North 1.0 mph 6.0 mph 89% 0.00 in -SN
23:10 18.1 °F 15.4 °F 30.16 in Calm   5.0 mph 89% 0.00 in BKN
23:20 18.2 °F 15.5 °F 30.16 in NNW 2.0 mph 4.0 mph 89% 0.00 in BKN
23:30 18.4 °F 15.4 °F 30.17 in North 1.0 mph 9.0 mph 88% 0.00 in BKN
23:40 18.5 °F 15.3 °F 30.17 in NE 1.0 mph 4.0 mph 87% 0.00 in BKN
23:50 18.4 °F 15.1 °F 30.17 in Calm   4.0 mph 87% 0.00 in BKN
TarryTown NY Weather
Compliments of Weather Underground - 1.75 mb